Capitol Logistics 3251




KMIA
Miami International Airport
Miami, Florida
MYNN
Lynden Pindling International Airport
Nassau,

Activity Log

Date Flight Route Aircraft Duration
04/26/2021 CPX3251 SKIPS2 SKIPS RAJAY SF34 0h 54m
04/12/2021 CPX3251 SKIPS2 SKIPS RAJAY SF34 0h 47m
03/11/2021 CPX3251 SKIPS2 SKIPS RAJAY SF34 0h 50m
09/14/2019 CPX651 SKIPS2 SKIPS RAJAY SF34 0h 39m
09/04/2019 CPX651 SKIPS2 SKIPS RAJAY SF34 0h 40m
09/04/2019 CPX651 SKIPS2 SKIPS RAJAY SF34 0h 42m
08/21/2019 CPX651 SKIPS2 SKIPS RAJAY SF34 0h 50m
06/25/2019 CPX651 SKIPS2 SKIPS RAJAY SF34 0h 50m

Route Details

Aircraft Information
Primary: Saab 340AF
Backup: Not Available
Route Data
Distance: 160nm
Duration: 1h 05m
Recm'd Route: SKIPS2 SKIPS RAJAY
Origin Wx: KMIA 020553Z 00000KT 10SM FEW028 FEW250 29/25 A3006 RMK AO2 SLP179 OCNL LTGIC DSNT E-SE CB DSNT E-SE MOV N 60000 T02890250 10306 20289 58010 $
Dest. Wx: MYNN 020600Z 19006KT 9999 -SHRA FEW018CB SCT020 BKN090 29/24 A3009 RMK CB NE
Notes: